createdAt,value
2022-12-20T00:00:11.667Z,11.60
2022-12-20T00:02:40.150Z,11.60
2022-12-20T00:05:09.146Z,11.60
2022-12-20T00:07:37.787Z,11.60
2022-12-20T00:10:09.304Z,11.60
2022-12-20T00:12:37.884Z,11.60
2022-12-20T00:15:07.293Z,11.70
2022-12-20T00:17:35.759Z,11.70
2022-12-20T00:20:04.647Z,11.70
2022-12-20T00:22:33.147Z,11.60
2022-12-20T00:25:01.781Z,11.60
2022-12-20T00:27:31.736Z,11.60
2022-12-20T00:30:00.308Z,11.60
2022-12-20T00:32:29.196Z,11.60
2022-12-20T00:34:57.604Z,11.60
2022-12-20T00:37:26.587Z,11.50
2022-12-20T00:39:55.358Z,11.50
2022-12-20T00:42:23.921Z,11.50
2022-12-20T00:44:54.074Z,11.50
2022-12-20T00:47:23.511Z,11.50
2022-12-20T00:49:52.159Z,11.50
2022-12-20T00:52:20.782Z,11.50
2022-12-20T00:54:49.464Z,11.40
2022-12-20T00:57:18.055Z,11.30
2022-12-20T00:59:46.431Z,11.30
2022-12-20T01:02:16.689Z,11.30
2022-12-20T01:04:45.311Z,11.30
2022-12-20T01:07:13.942Z,11.40
2022-12-20T01:09:42.548Z,11.40
2022-12-20T01:12:11.571Z,11.50
2022-12-20T01:14:40.084Z,11.50
2022-12-20T01:17:09.742Z,11.50
2022-12-20T01:19:39.975Z,11.50
2022-12-20T01:22:08.855Z,11.50
2022-12-20T01:24:37.234Z,11.60
2022-12-20T01:27:05.758Z,11.60
2022-12-20T01:29:34.598Z,11.60
2022-12-20T01:32:03.188Z,11.70
2022-12-20T01:34:32.106Z,11.70
2022-12-20T01:37:02.256Z,11.70
2022-12-20T01:39:30.929Z,11.70
2022-12-20T01:41:59.663Z,11.80
2022-12-20T01:44:57.851Z,11.80
2022-12-20T01:47:28.819Z,11.80
2022-12-20T01:50:00.913Z,11.80
2022-12-20T01:52:37.168Z,11.80
2022-12-20T01:55:11.849Z,11.80
2022-12-20T01:57:45.467Z,11.70
2022-12-20T02:00:15.775Z,11.60
2022-12-20T02:02:45.221Z,11.50
2022-12-20T02:05:14.866Z,11.30
2022-12-20T02:07:50.873Z,11.30
2022-12-20T02:10:22.256Z,11.30
2022-12-20T02:12:54.427Z,11.30
2022-12-20T02:15:33.522Z,11.30
2022-12-20T02:18:15.319Z,11.30
2022-12-20T02:21:17.981Z,11.30
2022-12-20T02:24:18.216Z,11.40
2022-12-20T02:27:30.015Z,11.40
2022-12-20T02:30:16.372Z,11.50
2022-12-20T02:32:50.934Z,11.50
2022-12-20T02:35:23.396Z,11.50
2022-12-20T02:37:54.549Z,11.50
2022-12-20T02:40:26.625Z,11.40
2022-12-20T02:43:00.400Z,11.30
2022-12-20T02:45:34.182Z,11.20
2022-12-20T02:48:06.302Z,11.00
2022-12-20T02:50:40.172Z,10.90
2022-12-20T02:53:09.592Z,10.90
2022-12-20T02:55:47.425Z,10.80
2022-12-20T02:58:24.863Z,10.70
2022-12-20T03:00:58.404Z,10.70
2022-12-20T03:03:27.593Z,10.60
2022-12-20T03:05:58.149Z,10.60
2022-12-20T03:08:27.337Z,10.60
2022-12-20T03:10:57.875Z,10.50
2022-12-20T03:13:27.113Z,10.40
2022-12-20T03:16:02.405Z,10.30
2022-12-20T03:18:31.058Z,10.30
2022-12-20T03:20:59.684Z,10.20
2022-12-20T03:23:28.147Z,10.10
2022-12-20T03:25:57.398Z,10.10
2022-12-20T03:28:46.188Z,10.10
2022-12-20T03:31:22.176Z,10.00
2022-12-20T03:33:54.960Z,10.00
2022-12-20T03:36:24.578Z,10.00
2022-12-20T03:38:58.054Z,10.00
2022-12-20T03:41:28.918Z,9.90
2022-12-20T03:43:57.733Z,9.90
2022-12-20T03:46:29.357Z,9.90
2022-12-20T03:48:58.487Z,9.90
2022-12-20T03:51:27.268Z,9.90
2022-12-20T03:53:55.837Z,9.90
2022-12-20T03:56:31.261Z,9.90
2022-12-20T03:58:59.969Z,9.90
2022-12-20T04:01:31.401Z,9.90
2022-12-20T04:04:01.224Z,9.90
2022-12-20T04:06:30.291Z,9.90
2022-12-20T04:08:59.716Z,9.80
2022-12-20T04:11:32.717Z,9.80
2022-12-20T04:14:07.737Z,9.80
2022-12-20T04:16:38.746Z,9.80
2022-12-20T04:19:09.346Z,9.90
2022-12-20T04:21:42.493Z,9.80
2022-12-20T04:24:11.866Z,9.80
2022-12-20T04:26:53.507Z,9.80
2022-12-20T04:29:22.003Z,9.80
2022-12-20T04:31:52.993Z,9.80
2022-12-20T04:34:23.992Z,9.90
2022-12-20T04:36:52.937Z,9.90
2022-12-20T04:39:32.206Z,9.90
2022-12-20T04:42:19.650Z,9.90
2022-12-20T04:44:48.492Z,9.90
2022-12-20T04:47:24.236Z,9.80
2022-12-20T04:49:54.338Z,9.90
2022-12-20T04:52:47.164Z,9.90
2022-12-20T04:55:16.766Z,9.90
2022-12-20T04:57:45.908Z,9.90
2022-12-20T05:00:16.079Z,10.00
2022-12-20T05:02:52.082Z,10.00
2022-12-20T05:05:23.088Z,10.00
2022-12-20T05:07:56.070Z,10.00
2022-12-20T05:10:25.630Z,10.00
2022-12-20T05:12:56.573Z,10.00
2022-12-20T05:15:35.878Z,10.00
2022-12-20T05:18:07.423Z,9.90
2022-12-20T05:20:46.606Z,9.90
2022-12-20T05:23:33.017Z,9.90
2022-12-20T05:26:21.750Z,9.90
2022-12-20T05:28:53.308Z,9.90
2022-12-20T05:31:23.107Z,9.80
2022-12-20T05:33:54.312Z,9.90
2022-12-20T05:36:25.229Z,9.80
2022-12-20T05:38:59.871Z,9.80
2022-12-20T05:41:32.525Z,9.90
2022-12-20T05:44:02.716Z,9.90
2022-12-20T05:46:34.210Z,9.90
2022-12-20T05:49:07.570Z,9.90
2022-12-20T05:51:36.676Z,9.90
2022-12-20T05:54:17.434Z,10.00
2022-12-20T05:56:55.907Z,10.00
2022-12-20T05:59:32.818Z,10.00
2022-12-20T06:02:01.766Z,10.00
2022-12-20T06:04:34.127Z,10.00
2022-12-20T06:07:07.075Z,10.10
2022-12-20T06:09:36.355Z,10.10
2022-12-20T06:12:12.008Z,10.10
2022-12-20T06:14:41.469Z,10.10
2022-12-20T06:17:10.304Z,10.10
2022-12-20T06:19:41.715Z,10.10
2022-12-20T06:22:13.678Z,10.20
2022-12-20T06:24:48.443Z,10.20
2022-12-20T06:27:21.640Z,10.30
2022-12-20T06:29:57.245Z,10.30
2022-12-20T06:32:30.423Z,10.30
2022-12-20T06:35:00.664Z,10.40
2022-12-20T06:37:29.831Z,10.40
2022-12-20T06:39:58.684Z,10.40
2022-12-20T06:42:27.391Z,10.40
2022-12-20T06:44:55.887Z,10.50
2022-12-20T06:47:24.646Z,10.50
2022-12-20T06:49:53.490Z,10.60
2022-12-20T06:52:26.582Z,10.60
2022-12-20T06:54:56.682Z,10.60
2022-12-20T06:57:25.591Z,10.60
2022-12-20T06:59:55.836Z,10.60
2022-12-20T07:02:27.600Z,10.70
2022-12-20T07:04:56.882Z,10.70
2022-12-20T07:07:26.902Z,10.70
2022-12-20T07:09:55.495Z,10.70
2022-12-20T07:12:24.378Z,10.70
2022-12-20T07:14:53.331Z,10.70
2022-12-20T07:17:24.667Z,10.80
2022-12-20T07:19:54.704Z,10.70
2022-12-20T07:22:23.112Z,10.80
2022-12-20T07:24:53.105Z,10.70
2022-12-20T07:27:21.625Z,10.80
2022-12-20T07:29:50.227Z,10.70
2022-12-20T07:32:18.887Z,10.80
2022-12-20T07:34:47.529Z,10.90
2022-12-20T07:37:16.181Z,10.90
2022-12-20T07:39:44.810Z,10.90
2022-12-20T07:42:15.049Z,11.00
2022-12-20T07:44:45.093Z,10.90
2022-12-20T07:47:13.674Z,10.90
2022-12-20T07:49:42.207Z,10.80
2022-12-20T07:52:12.772Z,10.70
2022-12-20T07:54:46.292Z,10.70
2022-12-20T07:57:20.893Z,10.70
2022-12-20T07:59:55.030Z,10.80
2022-12-20T08:02:32.085Z,10.80
2022-12-20T08:05:01.224Z,10.90
2022-12-20T08:07:31.251Z,10.90
2022-12-20T08:10:00.113Z,11.00
2022-12-20T08:12:32.103Z,11.00
2022-12-20T08:15:00.806Z,11.10
2022-12-20T08:17:29.669Z,11.10
2022-12-20T08:19:58.363Z,11.10
2022-12-20T08:22:27.058Z,11.10
2022-12-20T08:24:56.305Z,11.10
2022-12-20T08:27:24.733Z,11.20
2022-12-20T08:29:54.803Z,11.20
2022-12-20T08:32:23.377Z,11.20
2022-12-20T08:34:51.836Z,11.20
2022-12-20T08:37:20.886Z,11.30
2022-12-20T08:39:50.065Z,11.30
2022-12-20T08:42:18.714Z,11.30
2022-12-20T08:44:47.495Z,11.40
2022-12-20T08:47:17.557Z,11.40
2022-12-20T08:49:47.986Z,11.40
2022-12-20T08:52:16.733Z,11.40
2022-12-20T08:54:45.280Z,11.40
2022-12-20T08:57:13.794Z,11.50
2022-12-20T08:59:42.363Z,11.50
2022-12-20T09:02:11.152Z,11.50
2022-12-20T09:04:41.355Z,11.50
2022-12-20T09:07:09.957Z,11.50
2022-12-20T09:09:38.529Z,11.50
2022-12-20T09:12:07.911Z,11.50
2022-12-20T09:14:36.475Z,11.50
2022-12-20T09:17:04.909Z,11.50
2022-12-20T09:19:33.752Z,11.50
2022-12-20T09:22:04.486Z,11.50
2022-12-20T09:24:33.145Z,11.50
2022-12-20T09:27:02.304Z,11.50
2022-12-20T09:29:35.508Z,11.40
2022-12-20T09:32:04.181Z,11.30
2022-12-20T09:34:32.778Z,11.30
2022-12-20T09:37:01.328Z,11.40
2022-12-20T09:39:31.305Z,11.40
2022-12-20T09:42:00.509Z,11.40
2022-12-20T09:44:32.031Z,11.30
2022-12-20T09:47:09.759Z,11.20
2022-12-20T09:49:42.933Z,11.20
2022-12-20T09:52:31.474Z,11.10
2022-12-20T09:55:17.196Z,11.20
2022-12-20T09:57:58.620Z,11.20
2022-12-20T10:00:28.511Z,11.20
2022-12-20T10:03:08.225Z,11.20
2022-12-20T10:05:47.367Z,11.10
2022-12-20T10:08:25.557Z,11.00
2022-12-20T10:10:59.665Z,11.00
2022-12-20T10:13:48.375Z,11.00
2022-12-20T10:16:38.217Z,11.10
2022-12-20T10:19:20.373Z,11.10
2022-12-20T10:21:57.513Z,11.20
2022-12-20T10:24:30.929Z,11.30
2022-12-20T10:27:12.225Z,11.40
2022-12-20T10:29:41.107Z,11.50
2022-12-20T10:32:16.421Z,11.50
2022-12-20T10:34:53.316Z,11.50
2022-12-20T10:37:21.860Z,11.50
2022-12-20T10:39:52.371Z,11.50
2022-12-20T10:42:37.737Z,11.50
2022-12-20T10:45:20.345Z,11.40
2022-12-20T10:47:51.898Z,11.40
2022-12-20T10:50:23.353Z,11.30
2022-12-20T10:53:20.987Z,11.30
2022-12-20T10:55:49.823Z,11.50
2022-12-20T10:58:31.182Z,11.50
2022-12-20T11:01:08.459Z,11.50
2022-12-20T11:03:52.831Z,11.60
2022-12-20T11:06:23.506Z,11.50
2022-12-20T11:08:57.040Z,11.50
2022-12-20T11:11:29.353Z,11.50
2022-12-20T11:14:16.147Z,11.50
2022-12-20T11:16:47.623Z,11.50
2022-12-20T11:19:38.776Z,11.60
2022-12-20T11:22:22.349Z,11.70
2022-12-20T11:25:03.044Z,11.70
2022-12-20T11:27:36.416Z,11.80
2022-12-20T11:30:14.020Z,11.80
2022-12-20T11:33:36.411Z,11.80
2022-12-20T11:36:14.507Z,11.70
2022-12-20T11:38:45.092Z,11.50
2022-12-20T11:41:22.086Z,11.50
2022-12-20T11:44:26.311Z,11.50
2022-12-20T11:47:15.631Z,11.40
2022-12-20T11:50:12.674Z,11.40
2022-12-20T11:52:49.226Z,11.40
2022-12-20T11:55:21.860Z,11.50
2022-12-20T11:58:18.256Z,11.60
2022-12-20T12:00:53.504Z,11.60
2022-12-20T12:03:31.777Z,11.70
2022-12-20T12:06:04.660Z,11.80
2022-12-20T12:08:44.317Z,11.80
2022-12-20T12:11:55.651Z,12.00
2022-12-20T12:14:08.466Z,12.10
2022-12-20T12:16:42.179Z,12.20
2022-12-20T12:19:14.203Z,12.30
2022-12-20T12:21:48.534Z,12.30
2022-12-20T12:24:24.783Z,12.30
2022-12-20T12:26:54.510Z,12.30
2022-12-20T12:29:24.007Z,12.40
2022-12-20T12:31:57.325Z,12.40
2022-12-20T12:34:43.309Z,12.40
2022-12-20T12:37:50.015Z,12.40
2022-12-20T12:40:35.457Z,12.40
2022-12-20T12:43:36.866Z,12.50
2022-12-20T12:46:14.468Z,12.50
2022-12-20T12:48:48.078Z,12.40
2022-12-20T12:51:26.455Z,12.30
2022-12-20T12:54:03.900Z,12.00
2022-12-20T12:56:45.669Z,11.70
2022-12-20T12:59:43.988Z,11.50
2022-12-20T13:02:37.122Z,11.40
2022-12-20T13:05:31.960Z,11.30
2022-12-20T13:08:03.194Z,11.40
2022-12-20T13:11:02.220Z,11.40
2022-12-20T13:13:30.763Z,11.40
2022-12-20T13:17:02.774Z,11.40
2022-12-20T13:19:31.504Z,11.40
2022-12-20T13:22:15.996Z,11.40
2022-12-20T13:25:00.293Z,11.40
2022-12-20T13:27:34.992Z,11.30
2022-12-20T13:30:36.759Z,11.30
2022-12-20T13:33:23.243Z,11.30
2022-12-20T13:36:06.944Z,11.30
2022-12-20T13:38:58.751Z,11.30
2022-12-20T13:41:46.614Z,11.30
2022-12-20T13:44:38.245Z,11.30
2022-12-20T13:47:16.830Z,11.20
2022-12-20T13:49:46.196Z,11.20
2022-12-20T13:52:24.456Z,11.20
2022-12-20T13:54:57.593Z,11.20
2022-12-20T13:57:46.086Z,11.20
2022-12-20T14:00:27.274Z,11.20
2022-12-20T14:02:59.444Z,11.10
2022-12-20T14:05:33.531Z,11.20
2022-12-20T14:08:04.884Z,11.10
2022-12-20T14:10:39.995Z,11.10
2022-12-20T14:13:22.587Z,11.10
2022-12-20T14:15:56.563Z,11.00
2022-12-20T14:18:36.540Z,11.10
2022-12-20T14:21:10.682Z,11.00
2022-12-20T14:23:45.457Z,11.00
2022-12-20T14:26:17.618Z,11.00
2022-12-20T14:28:51.699Z,11.00
2022-12-20T14:31:32.216Z,11.00
2022-12-20T14:34:07.038Z,11.00
2022-12-20T14:36:36.386Z,11.00
2022-12-20T14:39:26.461Z,10.90
2022-12-20T14:42:00.152Z,10.90
2022-12-20T14:44:32.464Z,10.90
2022-12-20T14:47:02.938Z,10.90
2022-12-20T14:49:36.783Z,10.90
2022-12-20T14:52:19.182Z,10.90
2022-12-20T14:55:09.500Z,10.80
2022-12-20T14:57:46.476Z,10.80
2022-12-20T15:00:23.691Z,10.80
2022-12-20T15:03:01.029Z,10.70
2022-12-20T15:05:54.642Z,10.70
2022-12-20T15:08:27.546Z,10.70
2022-12-20T15:11:00.177Z,10.70
2022-12-20T15:13:34.711Z,10.70
2022-12-20T15:16:07.376Z,10.70
2022-12-20T15:18:36.102Z,10.70
2022-12-20T15:21:14.361Z,10.60
2022-12-20T15:23:47.326Z,10.60
2022-12-20T15:26:17.627Z,10.60
2022-12-20T15:28:46.776Z,10.60
2022-12-20T16:17:58.543Z,10.60
2022-12-20T16:20:31.691Z,10.60
2022-12-20T16:23:00.329Z,10.70
2022-12-20T16:25:32.101Z,10.70
2022-12-20T16:28:00.915Z,10.70
2022-12-20T16:30:30.013Z,10.80
2022-12-20T16:33:00.470Z,10.80
2022-12-20T16:35:31.353Z,10.80
2022-12-20T16:38:01.407Z,10.80
2022-12-20T16:40:32.275Z,10.90
2022-12-20T16:43:02.093Z,10.80
2022-12-20T16:45:32.131Z,10.80
2022-12-20T16:48:02.152Z,10.80
2022-12-20T16:50:30.770Z,10.80
2022-12-20T16:52:59.308Z,10.90
2022-12-20T16:55:33.352Z,10.80
2022-12-20T16:58:08.348Z,10.80
2022-12-20T17:00:37.461Z,10.90
2022-12-20T17:03:07.916Z,10.90
2022-12-20T17:05:39.631Z,10.90
2022-12-20T17:10:54.092Z,10.90
2022-12-20T17:13:22.671Z,10.90
2022-12-20T17:15:51.290Z,10.90
2022-12-20T17:18:21.284Z,10.80
2022-12-20T17:20:49.765Z,10.80
2022-12-20T17:23:18.238Z,10.80
2022-12-20T17:25:53.696Z,10.80
2022-12-20T17:28:23.565Z,10.80
2022-12-20T17:30:51.907Z,10.80
2022-12-20T17:33:21.764Z,10.80
2022-12-20T17:35:50.241Z,10.80
2022-12-20T17:38:18.759Z,10.80
2022-12-20T17:40:47.107Z,10.80
2022-12-20T17:43:15.620Z,10.80
2022-12-20T17:45:44.486Z,10.80
2022-12-20T17:48:13.169Z,10.80
2022-12-20T17:50:43.307Z,10.80
2022-12-20T17:53:13.127Z,10.80
2022-12-20T17:55:41.772Z,10.80
2022-12-20T17:58:11.327Z,10.80
2022-12-20T18:00:39.808Z,10.80
2022-12-20T18:03:15.866Z,10.80
2022-12-20T18:06:02.413Z,10.80
2022-12-20T18:08:36.147Z,10.80
2022-12-20T18:11:04.751Z,10.80
2022-12-20T18:13:33.347Z,10.80
2022-12-20T18:16:06.022Z,10.80
2022-12-20T18:18:37.066Z,10.70
2022-12-20T18:21:08.898Z,10.70
2022-12-20T18:23:38.440Z,10.80
2022-12-20T18:26:12.688Z,10.80
2022-12-20T18:28:42.801Z,10.80
2022-12-20T18:31:13.287Z,10.80
2022-12-20T18:33:42.208Z,10.80
2022-12-20T18:36:14.687Z,10.80
2022-12-20T18:38:44.743Z,10.70
2022-12-20T18:41:15.652Z,10.70
2022-12-20T18:43:44.322Z,10.70
2022-12-20T18:46:14.251Z,10.70
2022-12-20T18:48:45.434Z,10.70
2022-12-20T18:51:17.485Z,10.70
2022-12-20T18:53:48.255Z,10.70
2022-12-20T18:56:18.478Z,10.70
2022-12-20T18:58:48.413Z,10.70
2022-12-20T19:01:19.504Z,10.70
2022-12-20T19:03:48.105Z,10.70
2022-12-20T19:06:18.524Z,10.70
2022-12-20T19:08:47.525Z,10.60
2022-12-20T19:11:18.205Z,10.70
2022-12-20T19:13:46.905Z,10.60
2022-12-20T19:16:17.881Z,10.70
2022-12-20T19:18:47.274Z,10.60
2022-12-20T19:21:19.920Z,10.70
2022-12-20T19:23:50.403Z,10.70
2022-12-20T19:26:22.315Z,10.60
2022-12-20T19:28:51.302Z,10.60
2022-12-20T19:31:23.824Z,10.60
2022-12-20T19:33:54.503Z,10.60
2022-12-20T19:36:26.312Z,10.60
2022-12-20T19:38:57.176Z,10.60
2022-12-20T19:41:27.627Z,10.60
2022-12-20T19:43:56.684Z,10.60
2022-12-20T19:46:29.466Z,10.50
2022-12-20T19:48:59.667Z,10.50
2022-12-20T19:51:30.348Z,10.50
2022-12-20T19:53:59.973Z,10.50
2022-12-20T19:56:31.786Z,10.50
2022-12-20T19:59:00.303Z,10.40
2022-12-20T20:01:29.467Z,10.40
2022-12-20T20:04:00.476Z,10.40
2022-12-20T20:06:30.713Z,10.40
2022-12-20T20:09:00.055Z,10.50
2022-12-20T20:11:29.443Z,10.50
2022-12-20T20:13:58.221Z,10.50
2022-12-20T20:16:26.756Z,10.50
2022-12-20T20:18:55.604Z,10.40
2022-12-20T20:21:24.870Z,10.40
2022-12-20T20:23:56.234Z,10.40
2022-12-20T20:26:27.150Z,10.50
2022-12-20T20:28:57.821Z,10.40
2022-12-20T20:31:26.470Z,10.40
2022-12-20T20:33:55.490Z,10.40
2022-12-20T20:36:25.823Z,10.40
2022-12-20T20:39:03.336Z,10.40
2022-12-20T20:41:36.950Z,10.40
2022-12-20T20:44:16.654Z,10.40
2022-12-20T20:46:54.143Z,10.50
2022-12-20T20:49:25.324Z,10.40
2022-12-20T20:51:53.990Z,10.40
2022-12-20T20:54:24.164Z,10.40
2022-12-20T20:56:52.627Z,10.40
2022-12-20T20:59:22.999Z,10.40
2022-12-20T21:01:51.609Z,10.50
2022-12-20T21:04:20.178Z,10.50
2022-12-20T21:06:48.866Z,10.50
2022-12-20T21:09:17.519Z,10.50
2022-12-20T21:11:47.869Z,10.50
2022-12-20T21:14:25.741Z,10.50
2022-12-20T21:17:04.987Z,10.50
2022-12-20T21:19:33.513Z,10.50
2022-12-20T21:22:01.985Z,10.50
2022-12-20T21:24:30.870Z,10.60
2022-12-20T21:27:00.968Z,10.60
2022-12-20T21:29:34.779Z,10.60
2022-12-20T21:32:03.520Z,10.60
2022-12-20T21:34:32.342Z,10.60
2022-12-20T21:37:00.960Z,10.60
2022-12-20T21:39:29.323Z,10.50
2022-12-20T21:42:01.862Z,10.50
2022-12-20T21:44:32.563Z,10.50
2022-12-20T21:47:01.229Z,10.50
2022-12-20T21:49:29.667Z,10.50
2022-12-20T21:51:58.442Z,10.50
2022-12-20T21:54:27.084Z,10.50
2022-12-20T21:56:56.154Z,10.50
2022-12-20T21:59:24.704Z,10.50
2022-12-20T22:01:55.919Z,10.50
2022-12-20T22:04:24.604Z,10.50
2022-12-20T22:06:53.079Z,10.50
2022-12-20T22:09:22.026Z,10.50
2022-12-20T22:11:54.573Z,10.50
2022-12-20T22:14:23.065Z,10.50
2022-12-20T22:16:51.523Z,10.50
2022-12-20T22:19:21.541Z,10.50
2022-12-20T22:21:57.445Z,10.50
2022-12-20T22:24:26.815Z,10.50
2022-12-20T22:26:55.305Z,10.50
2022-12-20T22:29:23.601Z,10.50
2022-12-20T22:31:52.776Z,10.50
2022-12-20T22:34:22.813Z,10.50
2022-12-20T22:36:51.130Z,10.50
2022-12-20T22:39:19.865Z,10.50
2022-12-20T22:41:48.328Z,10.50
2022-12-20T22:44:16.836Z,10.50
2022-12-20T22:46:45.275Z,10.50
2022-12-20T22:49:20.644Z,10.50
2022-12-20T22:52:05.922Z,10.50
2022-12-20T22:54:35.825Z,10.50
2022-12-20T22:57:04.841Z,10.50
2022-12-20T22:59:34.914Z,10.50
2022-12-20T23:02:03.751Z,10.50
2022-12-20T23:04:32.395Z,10.50
2022-12-20T23:07:02.358Z,10.50
2022-12-20T23:09:30.764Z,10.50
2022-12-20T23:12:16.408Z,10.50
2022-12-20T23:15:04.386Z,10.50
2022-12-20T23:17:34.223Z,10.60
2022-12-20T23:20:19.987Z,10.60
2022-12-20T23:22:49.768Z,10.50
2022-12-20T23:25:19.787Z,10.50
2022-12-20T23:27:50.148Z,10.50
2022-12-20T23:30:22.943Z,10.50
2022-12-20T23:32:51.441Z,10.50
2022-12-20T23:35:21.590Z,10.50
2022-12-20T23:37:51.626Z,10.50
2022-12-20T23:40:20.144Z,10.60
2022-12-20T23:42:49.987Z,10.60
2022-12-20T23:45:18.567Z,10.50
2022-12-20T23:47:46.956Z,10.50
2022-12-20T23:50:15.415Z,10.50
2022-12-20T23:52:43.994Z,10.50
2022-12-20T23:55:13.792Z,10.50
2022-12-20T23:57:42.157Z,10.50
